KQWM/QWM METAR and TAF weather

Enter ICAO airport designator
Station Type Date Time Source
KQWM METAR 2022/06/30 13:56 UTC NOAA

KQWM 301356Z 30021G28KT 2400 BLDU FEW016 SCT020 BKN024 46/00 A2938 RMK AO2A PK WND 31031/11 CIG 018V024 SLP943 WND DATA ESTMD T04590000


Station Type Date Time Source
KQWM Decoded METAR 2022/06/30 13:56 UTC NOAA

Station name not available
Jun 30, 2022 - 09:56 AM EDT / 2022.06.30 1356 UTC
Wind: from the WNW (300 degrees) at 24 MPH (21 KT) gusting to 32 MPH (28 KT):0
Visibility: 1 mile(s):0
Sky conditions: mostly cloudy
Weather: blowing widespread dust
Temperature: 114.6 F (45.9 C)
Dew Point: 32.0 F (0.0 C)
Relative Humidity: 6%
Pressure (altimeter): 29.38 in. Hg (994 hPa)
ob: KQWM 301356Z 30021G28KT 2400 BLDU FEW016 SCT020 BKN024 46/00 A2938 RMK AO2A PK WND 31031/11 CIG 018V024 SLP943 WND DATA ESTMD T04590000
cycle: 14

Station Type Date Time Source
KQWM TAF 2016/03/17 15:00 UTC NOAA

TAF KQWM 171500Z 1715/1821 28009KT 9000 HZ SKC QNH2995INS
TEMPO 1715/1717 27015G20KT
BECMG 1807/1808 29012G20KT 8000 HZ SKC QNH2998INS
BECMG 1814/1815 29009KT 9999 NSW SKC QNH3002INS TX26/1811Z TN13/1803Z

Example: see airport list